createdAt,value
2023-02-27T00:00:41.909Z,4.5
2023-02-27T00:04:56.957Z,5.5
2023-02-27T00:09:09.388Z,3.7
2023-02-27T00:13:21.384Z,4.1
2023-02-27T00:15:27.432Z,4.3
2023-02-27T00:17:36.435Z,5.4
2023-02-27T00:19:42.527Z,4.7
2023-02-27T00:21:48.589Z,5.2
2023-02-27T00:28:06.829Z,4.2
2023-02-27T00:30:12.884Z,3.8
2023-02-27T00:32:21.958Z,5
2023-02-27T00:36:34.043Z,4.3
2023-02-27T00:38:40.078Z,3.6
2023-02-27T00:40:46.160Z,4.2
2023-02-27T00:42:52.224Z,3.8
2023-02-27T00:44:58.275Z,4.3
2023-02-27T00:47:07.253Z,3.4
2023-02-27T00:51:19.371Z,4
2023-02-27T00:52:23.855Z,4.4
2023-02-27T00:54:29.909Z,4.9
2023-02-27T00:56:35.963Z,5.3
2023-02-27T00:58:42.017Z,4
2023-02-27T01:02:57.039Z,5.1
2023-02-27T01:05:03.083Z,5
2023-02-27T01:07:10.332Z,5.1
2023-02-27T01:09:15.191Z,4.4
2023-02-27T01:11:21.235Z,4.7
2023-02-27T01:13:27.275Z,4.5
2023-02-27T01:15:36.228Z,3.8
2023-02-27T01:17:42.299Z,4.4
2023-02-27T01:19:48.330Z,4.6
2023-02-27T01:21:54.360Z,3.9
2023-02-27T01:24:00.415Z,4.5
2023-02-27T01:26:06.451Z,4.6
2023-02-27T01:28:12.491Z,4.3
2023-02-27T01:30:21.439Z,4.9
2023-02-27T01:32:27.633Z,4.8
2023-02-27T01:34:34.371Z,3.8
2023-02-27T01:36:39.605Z,4.4
2023-02-27T01:38:45.651Z,3.7
2023-02-27T01:40:51.696Z,3.9
2023-02-27T01:42:57.736Z,4.4
2023-02-27T01:45:06.734Z,4.1
2023-02-27T01:47:12.777Z,3.9
2023-02-27T01:50:23.319Z,4.4
2023-02-27T01:52:29.410Z,4
2023-02-27T01:54:35.452Z,3.6
2023-02-27T01:56:41.505Z,3.7
2023-02-27T01:58:50.468Z,3.9
2023-02-27T02:03:02.587Z,3.4
2023-02-27T02:05:08.638Z,4.3
2023-02-27T02:07:14.725Z,4.4
2023-02-27T02:09:20.747Z,3.8
2023-02-27T02:11:27.160Z,4.5
2023-02-27T02:13:35.741Z,4.6
2023-02-27T02:15:41.798Z,3.8
2023-02-27T02:19:53.893Z,4
2023-02-27T02:21:59.956Z,4
2023-02-27T02:26:12.005Z,3.3
2023-02-27T02:30:27.168Z,4
2023-02-27T02:36:45.069Z,4.3
2023-02-27T02:40:57.106Z,4
2023-02-27T02:43:06.052Z,4
2023-02-27T02:45:12.117Z,5
2023-02-27T02:49:38.329Z,4.9
2023-02-27T02:51:44.381Z,3.8
2023-02-27T02:53:50.378Z,4.2
2023-02-27T02:55:59.383Z,4.3
2023-02-27T02:58:05.322Z,3.4
2023-02-27T03:00:11.342Z,4.1
2023-02-27T03:02:17.366Z,4.1
2023-02-27T03:10:44.301Z,4.7
2023-02-27T03:14:56.343Z,4.5
2023-02-27T03:17:02.356Z,4.3
2023-02-27T03:19:08.339Z,3.8
2023-02-27T03:21:14.367Z,3.3
2023-02-27T03:23:20.553Z,3.5
2023-02-27T03:25:29.326Z,3.5
2023-02-27T03:27:35.289Z,3.2
2023-02-27T03:29:41.346Z,2.8
2023-02-27T03:33:53.334Z,4.2
2023-02-27T03:38:05.385Z,3.5
2023-02-27T03:42:20.284Z,3.8
2023-02-27T03:44:26.313Z,4.3
2023-02-27T03:47:36.812Z,4
2023-02-27T03:49:42.837Z,3.4
2023-02-27T03:51:48.871Z,3.8
2023-02-27T03:53:57.773Z,3.3
2023-02-27T03:56:03.772Z,4.2
2023-02-27T03:58:09.793Z,3.2
2023-02-27T04:00:15.814Z,3.2
2023-02-27T04:02:21.825Z,3.4
2023-02-27T04:06:33.852Z,3.9
2023-02-27T04:08:42.742Z,4.3
2023-02-27T04:10:48.774Z,3.4
2023-02-27T04:12:54.786Z,4.6
2023-02-27T04:15:00.804Z,4.1
2023-02-27T04:19:12.807Z,4
2023-02-27T04:21:18.876Z,3.6
2023-02-27T04:23:27.780Z,5
2023-02-27T04:27:39.795Z,4.8
2023-02-27T04:29:45.816Z,3.5
2023-02-27T04:31:51.905Z,3.7
2023-02-27T04:33:57.870Z,4.2
2023-02-27T04:36:03.911Z,3.8
2023-02-27T04:38:12.849Z,4
2023-02-27T04:40:18.818Z,4.4
2023-02-27T04:42:24.835Z,5.2
2023-02-27T04:43:29.285Z,5.5
2023-02-27T04:45:35.349Z,4.6
2023-02-27T04:47:41.295Z,4.8
2023-02-27T04:49:47.314Z,5.8
2023-02-27T04:51:56.227Z,5
2023-02-27T04:56:08.218Z,5.5
2023-02-27T04:58:14.276Z,4.8
2023-02-27T05:00:20.235Z,5
2023-02-27T05:02:26.294Z,4.9
2023-02-27T05:04:32.212Z,4.5
2023-02-27T05:08:47.081Z,5.4
2023-02-27T05:10:53.074Z,5.4
2023-02-27T05:12:59.072Z,5.7
2023-02-27T05:15:05.067Z,5.2
2023-02-27T05:17:11.031Z,4
2023-02-27T05:21:26.400Z,5.7
2023-02-27T05:23:31.883Z,6.1
2023-02-27T05:25:37.855Z,6.4
2023-02-27T05:27:43.863Z,5.7
2023-02-27T05:29:49.830Z,6.3
2023-02-27T05:31:56.014Z,5.7
2023-02-27T05:34:01.834Z,5.5
2023-02-27T05:36:10.712Z,7.5
2023-02-27T05:38:16.660Z,6.9
2023-02-27T05:40:22.639Z,6.1
2023-02-27T05:41:27.366Z,6.6
2023-02-27T05:45:39.148Z,5.2
2023-02-27T05:47:45.043Z,5.7
2023-02-27T05:49:55.484Z,7
2023-02-27T05:52:03.033Z,5.3
2023-02-27T05:54:08.995Z,6.8
2023-02-27T05:58:20.952Z,7.3
2023-02-27T06:04:41.807Z,7.6
2023-02-27T06:06:47.752Z,7.2
2023-02-27T06:10:59.739Z,7.4
2023-02-27T06:13:05.827Z,7.3
2023-02-27T06:15:11.693Z,8.5
2023-02-27T06:19:26.557Z,7.1
2023-02-27T06:21:32.521Z,8
2023-02-27T06:25:44.479Z,7.4
2023-02-27T06:29:56.438Z,7.6
2023-02-27T06:34:11.326Z,8
2023-02-27T06:36:17.303Z,7.8
2023-02-27T06:42:54.763Z,9.3
2023-02-27T06:45:00.744Z,8.2
2023-02-27T06:49:15.598Z,8.5
2023-02-27T06:51:21.584Z,8.9
2023-02-27T06:53:28.991Z,8.6
2023-02-27T06:55:33.536Z,8.7
2023-02-27T06:57:39.550Z,7.8
2023-02-27T06:59:45.498Z,7.1
2023-02-27T07:01:54.399Z,8.8
2023-02-27T07:04:00.375Z,9.4
2023-02-27T07:08:12.324Z,10.1
2023-02-27T07:12:24.305Z,10.1
2023-02-27T07:14:30.311Z,10.7
2023-02-27T07:16:39.179Z,10.3
2023-02-27T07:18:45.150Z,11.2
2023-02-27T07:20:51.868Z,12.1
2023-02-27T07:25:03.148Z,11.1
2023-02-27T07:27:09.130Z,11.9
2023-02-27T07:31:24.088Z,10.8
2023-02-27T07:33:30.013Z,11.1
2023-02-27T07:35:36.088Z,10.7
2023-02-27T07:38:46.512Z,10
2023-02-27T07:40:52.530Z,7.6
2023-02-27T07:42:58.600Z,9.1
2023-02-27T07:57:43.766Z,5
2023-02-27T07:59:52.748Z,5.6
2023-02-27T08:04:04.925Z,5.8
2023-02-27T08:06:11.010Z,4.2
2023-02-27T08:14:38.332Z,4.6
2023-02-27T08:18:50.598Z,3.9
2023-02-27T08:20:56.724Z,4.2
2023-02-27T08:23:02.908Z,4.3
2023-02-27T08:25:09.041Z,3.2
2023-02-27T08:27:15.180Z,3.8
2023-02-27T08:29:24.211Z,3.3
2023-02-27T08:33:36.561Z,3.5
2023-02-27T08:34:41.086Z,3.6
2023-02-27T08:36:47.291Z,3.5
2023-02-27T08:40:59.669Z,3.8
2023-02-27T08:45:14.966Z,3.6
2023-02-27T08:47:21.150Z,3.4
2023-02-27T08:49:31.463Z,3.3
2023-02-27T08:51:33.564Z,4.6
2023-02-27T08:55:45.985Z,4.5
2023-02-27T08:57:55.097Z,2.5
2023-02-27T09:00:01.398Z,2.1
2023-02-27T09:04:13.781Z,3.3
2023-02-27T09:06:19.917Z,3
2023-02-27T09:08:26.051Z,2.5
2023-02-27T09:10:32.222Z,2.5
2023-02-27T09:12:41.397Z,2.3
2023-02-27T09:14:47.531Z,3.1
2023-02-27T09:16:53.815Z,3.5
2023-02-27T09:18:59.959Z,3.4
2023-02-27T09:23:12.254Z,2.4
2023-02-27T09:25:18.516Z,2
2023-02-27T09:27:27.501Z,2.7
2023-02-27T09:29:33.682Z,2.8
2023-02-27T09:31:39.921Z,2.9
2023-02-27T09:32:44.383Z,2.6
2023-02-27T09:36:56.706Z,2.8
2023-02-27T09:41:11.898Z,3.1
2023-02-27T09:45:24.279Z,3.1
2023-02-27T09:47:30.483Z,2.1
2023-02-27T09:53:49.079Z,2.7
2023-02-27T09:55:58.130Z,2
2023-02-27T09:58:04.308Z,3.1
2023-02-27T10:00:10.527Z,3
2023-02-27T10:08:35.331Z,2.2
2023-02-27T10:12:50.533Z,2.6
2023-02-27T10:14:56.766Z,3.9
2023-02-27T10:17:03.064Z,2.2
2023-02-27T10:19:09.169Z,2.4
2023-02-27T10:21:15.371Z,2.1
2023-02-27T10:23:21.565Z,2.1
2023-02-27T10:25:31.984Z,1.9
2023-02-27T10:27:36.829Z,2
2023-02-27T10:29:43.009Z,2.4
2023-02-27T10:42:36.743Z,2.1
2023-02-27T10:46:51.763Z,2.1
2023-02-27T10:48:55.395Z,2
2023-02-27T10:53:10.632Z,1.9
2023-02-27T10:55:16.826Z,1.7
2023-02-27T10:57:23.053Z,2.1
2023-02-27T10:59:29.276Z,1.6
2023-02-27T11:01:35.535Z,1.6
2023-02-27T11:03:41.836Z,1.8
2023-02-27T11:05:47.907Z,1.4
2023-02-27T11:07:56.916Z,1.6
2023-02-27T11:10:03.145Z,2.2
2023-02-27T11:12:09.418Z,2
2023-02-27T11:14:15.597Z,1.9
2023-02-27T11:16:21.832Z,1.8
2023-02-27T11:28:00.306Z,1.3
2023-02-27T11:30:06.528Z,1.7
2023-02-27T11:32:12.848Z,1.3
2023-02-27T11:34:19.034Z,1.6
2023-02-27T11:36:28.069Z,1.7
2023-02-27T11:38:34.320Z,1.7
2023-02-27T11:40:40.555Z,1.6
2023-02-27T11:42:46.813Z,1.8
2023-02-27T11:44:53.055Z,1.8
2023-02-27T11:46:59.320Z,2
2023-02-27T11:49:05.555Z,1.4
2023-02-27T11:51:14.578Z,0.9
2023-02-27T11:53:20.828Z,1.6
2023-02-27T11:55:28.661Z,1.6
2023-02-27T11:57:34.888Z,1.5
2023-02-27T11:59:41.137Z,1.7
2023-02-27T12:01:47.380Z,2
2023-02-27T12:03:53.713Z,1.5
2023-02-27T12:08:08.983Z,1.6
2023-02-27T12:10:15.220Z,1.5
2023-02-27T12:12:21.502Z,2.1
2023-02-27T12:14:27.795Z,1.9
2023-02-27T12:16:34.568Z,1.8
2023-02-27T12:18:40.270Z,1.5
2023-02-27T12:20:49.338Z,1.2
2023-02-27T12:26:06.361Z,1.5
2023-02-27T12:28:12.607Z,1.5
2023-02-27T12:30:18.858Z,2
2023-02-27T12:34:34.175Z,1.9
2023-02-27T12:36:40.414Z,2.3
2023-02-27T12:38:46.638Z,1.8
2023-02-27T12:42:59.126Z,1.1
2023-02-27T12:45:05.354Z,1.7
2023-02-27T12:47:11.598Z,1.9
2023-02-27T12:49:20.637Z,1.9
2023-02-27T12:51:27.153Z,2.1
2023-02-27T12:53:33.109Z,2.3
2023-02-27T12:57:45.575Z,1.5
2023-02-27T12:59:51.829Z,1.2
2023-02-27T13:01:58.088Z,1.8
2023-02-27T13:04:07.214Z,1.7
2023-02-27T13:06:13.353Z,2
2023-02-27T13:08:19.604Z,1.3
2023-02-27T13:10:25.840Z,1.8
2023-02-27T13:12:32.178Z,1.8
2023-02-27T13:14:38.303Z,1.7
2023-02-27T13:16:44.672Z,2.1
2023-02-27T13:18:53.597Z,1.7
2023-02-27T13:20:59.787Z,2
2023-02-27T13:23:06.046Z,1.3
2023-02-27T13:24:10.572Z,2.1
2023-02-27T13:26:16.784Z,2.2
2023-02-27T13:30:29.227Z,2.2
2023-02-27T13:32:44.107Z,1.9
2023-02-27T13:34:44.783Z,2.3
2023-02-27T13:38:57.247Z,1.7
2023-02-27T13:43:09.735Z,1.9
2023-02-27T13:45:15.953Z,1.6
2023-02-27T13:51:37.483Z,1.3
2023-02-27T13:53:43.714Z,1.8
2023-02-27T13:55:49.974Z,1.5
2023-02-27T13:57:56.211Z,1.9
2023-02-27T14:00:02.468Z,1.6
2023-02-27T14:02:11.583Z,2.4
2023-02-27T14:06:23.997Z,2.1
2023-02-27T14:12:46.146Z,1.9
2023-02-27T14:14:48.960Z,2.1
2023-02-27T14:16:58.020Z,1.6
2023-02-27T14:19:05.134Z,2
2023-02-27T14:21:11.391Z,1.4
2023-02-27T14:23:35.397Z,2
2023-02-27T14:25:41.616Z,1.1
2023-02-27T14:36:15.659Z,2.6
2023-02-27T14:38:21.931Z,4.6
2023-02-27T14:40:29.996Z,4.2
2023-02-27T14:44:43.428Z,2.3
2023-02-27T14:46:49.657Z,1.8
2023-02-27T14:48:55.892Z,2.1
2023-02-27T14:51:02.185Z,1.5
2023-02-27T14:53:08.341Z,1.8
2023-02-27T14:55:14.571Z,1.8
2023-02-27T14:57:20.800Z,2
2023-02-27T15:01:36.165Z,1.9
2023-02-27T15:03:42.373Z,2
2023-02-27T15:05:48.517Z,2.4
2023-02-27T15:07:54.767Z,2.5
2023-02-27T15:10:03.245Z,1.6
2023-02-27T15:12:07.231Z,1.8
2023-02-27T15:14:16.335Z,2
2023-02-27T15:16:22.551Z,2.2
2023-02-27T15:19:33.292Z,1.9
2023-02-27T15:21:39.496Z,1.8
2023-02-27T15:28:01.014Z,2.2
2023-02-27T15:30:07.376Z,2.1
2023-02-27T15:32:13.551Z,2.1
2023-02-27T15:38:32.215Z,1.9
2023-02-27T15:42:47.495Z,1.9
2023-02-27T15:44:53.738Z,1.8
2023-02-27T15:49:06.182Z,2.1
2023-02-27T15:51:12.417Z,2.1
2023-02-27T15:53:18.644Z,1.9
2023-02-27T15:55:24.894Z,2
2023-02-27T15:57:33.940Z,1.6
2023-02-27T15:59:40.200Z,2.4
2023-02-27T16:03:52.639Z,2.6
2023-02-27T16:05:58.933Z,2.5
2023-02-27T16:10:11.353Z,1.8
2023-02-27T16:14:26.656Z,1.1
2023-02-27T16:16:32.986Z,1.8
2023-02-27T16:17:37.375Z,1.9
2023-02-27T16:19:43.627Z,1.5
2023-02-27T16:23:56.076Z,2.2
2023-02-27T16:28:11.368Z,1.8
2023-02-27T16:32:23.899Z,1.5
2023-02-27T16:36:36.257Z,1.6
2023-02-27T16:38:42.468Z,1.5
2023-02-27T16:40:51.670Z,2.3
2023-02-27T16:45:03.952Z,2.1
2023-02-27T16:47:10.162Z,2
2023-02-27T16:51:22.656Z,5.2
2023-02-27T16:55:37.863Z,4.3
2023-02-27T16:57:44.185Z,2.5
2023-02-27T16:59:50.396Z,2.2
2023-02-27T17:01:56.719Z,2.9
2023-02-27T17:04:05.246Z,8.1
2023-02-27T17:06:09.171Z,2.5
2023-02-27T17:08:15.462Z,2.8
2023-02-27T17:10:24.464Z,1.6
2023-02-27T17:12:30.720Z,2.4
2023-02-27T17:14:36.957Z,2.9
2023-02-27T17:15:41.403Z,5.3
2023-02-27T17:17:47.676Z,5.6
2023-02-27T17:19:53.975Z,8.7
2023-02-27T17:22:00.267Z,6.8
2023-02-27T17:26:15.686Z,6.6
2023-02-27T17:28:21.989Z,2.6
2023-02-27T17:32:34.529Z,3.5
2023-02-27T17:34:40.796Z,5.6
2023-02-27T17:38:56.206Z,4.7
2023-02-27T17:43:08.752Z,5.2
2023-02-27T17:45:15.013Z,3
2023-02-27T17:47:21.243Z,3.1
2023-02-27T17:51:33.754Z,3.8
2023-02-27T17:55:49.151Z,4.4
2023-02-27T17:57:55.390Z,7.4
2023-02-27T18:00:03.219Z,6.7
2023-02-27T18:02:09.425Z,8.8
2023-02-27T18:04:15.662Z,7
2023-02-27T18:08:31.024Z,4.6
2023-02-27T18:15:03.595Z,5.4
2023-02-27T18:23:31.430Z,2.6
2023-02-27T18:25:37.666Z,3.2
2023-02-27T18:31:56.404Z,5
2023-02-27T18:34:02.580Z,3
2023-02-27T18:36:11.732Z,3.8
2023-02-27T18:38:17.970Z,3.6
2023-02-27T18:40:24.167Z,4
2023-02-27T18:42:30.391Z,4.8
2023-02-27T18:44:36.653Z,3.2
2023-02-27T18:46:42.925Z,3.9
2023-02-27T18:48:49.090Z,4
2023-02-27T18:50:58.274Z,3.6
2023-02-27T18:57:16.867Z,4.1
2023-02-27T18:59:23.403Z,4.7
2023-02-27T19:01:29.564Z,5
2023-02-27T19:03:35.945Z,5
2023-02-27T19:05:44.923Z,5.3
2023-02-27T19:07:51.115Z,3.1
2023-02-27T19:09:57.321Z,3.9
2023-02-27T19:11:01.864Z,4.2
2023-02-27T19:15:14.298Z,2.6
2023-02-27T19:17:20.497Z,3.1
2023-02-27T19:19:29.614Z,3.6
2023-02-27T19:21:35.824Z,2.9
2023-02-27T19:23:42.039Z,3.7
2023-02-27T19:27:54.448Z,2.8
2023-02-27T19:34:15.952Z,4.3
2023-02-27T19:36:22.141Z,4.2
2023-02-27T19:38:28.334Z,3.7
2023-02-27T19:40:34.535Z,10.2
2023-02-27T19:42:40.735Z,8
2023-02-27T19:44:46.906Z,5.4
2023-02-27T19:46:53.297Z,5.8
2023-02-27T19:49:02.183Z,7.4
2023-02-27T19:51:08.381Z,5.1
2023-02-27T20:09:05.262Z,4.8
2023-02-27T20:11:11.426Z,4.3
2023-02-27T20:13:17.606Z,5.5
2023-02-27T20:15:23.759Z,5.2
2023-02-27T20:17:32.804Z,5.4
2023-02-27T20:19:39.007Z,5.4
2023-02-27T20:21:45.145Z,6.2
2023-02-27T20:23:51.291Z,4.9
2023-02-27T20:28:03.647Z,5.4
2023-02-27T20:30:09.774Z,5.8
2023-02-27T20:34:24.956Z,6.6
2023-02-27T20:36:31.118Z,9.7
2023-02-27T20:40:43.401Z,6.6
2023-02-27T20:44:55.693Z,6.5
2023-02-27T20:47:04.735Z,12.7
2023-02-27T20:49:10.907Z,8.6
2023-02-27T20:51:17.028Z,9
2023-02-27T20:53:24.851Z,8
2023-02-27T20:55:29.280Z,12.6
2023-02-27T20:59:41.538Z,8.3
2023-02-27T21:01:50.624Z,7.4
2023-02-27T21:06:02.853Z,11.2
2023-02-27T21:15:34.770Z,15.2
2023-02-27T21:17:40.891Z,17.4
2023-02-27T21:19:47.017Z,12.8
2023-02-27T21:21:53.168Z,9
2023-02-27T21:23:59.277Z,7.8
2023-02-27T21:28:11.490Z,10
2023-02-27T21:30:20.503Z,9.3
2023-02-27T21:32:26.681Z,7.6
2023-02-27T21:34:32.752Z,8.7
2023-02-27T21:36:38.876Z,8.2
2023-02-27T21:38:44.986Z,7.9
2023-02-27T21:40:51.091Z,7.5
2023-02-27T21:42:57.226Z,8.2
2023-02-27T21:45:06.219Z,6.6
2023-02-27T21:47:12.348Z,9.1
2023-02-27T21:49:18.469Z,7.9
2023-02-27T21:51:38.845Z,7.5
2023-02-27T21:53:30.676Z,7.6
2023-02-27T21:55:36.785Z,8.4
2023-02-27T21:57:42.886Z,7.9
2023-02-27T21:59:51.894Z,9.7
2023-02-27T22:01:58.043Z,7.6
2023-02-27T22:04:04.095Z,10
2023-02-27T22:06:30.147Z,10.5
2023-02-27T22:10:42.308Z,9
2023-02-27T22:12:51.311Z,10.6
2023-02-27T22:17:03.503Z,8.7
2023-02-27T22:19:09.571Z,9.8
2023-02-27T22:23:21.774Z,9.4
2023-02-27T22:27:36.911Z,9.3
2023-02-27T22:29:43.196Z,11.5
2023-02-27T22:31:49.255Z,8.8
2023-02-27T22:36:01.247Z,9.6
2023-02-27T22:38:07.361Z,9.3
2023-02-27T22:40:13.373Z,8.5
2023-02-27T22:42:22.341Z,9
2023-02-27T22:44:28.420Z,9.8
2023-02-27T22:46:34.610Z,10.1
2023-02-27T22:48:40.570Z,8.9
2023-02-27T22:50:46.657Z,8.9
2023-02-27T22:52:52.748Z,10.8
2023-02-27T22:54:58.831Z,10
2023-02-27T22:59:13.891Z,7.7
2023-02-27T23:01:20.002Z,10.2
2023-02-27T23:02:24.448Z,9
2023-02-27T23:04:30.557Z,8.2
2023-02-27T23:06:36.691Z,8.3
2023-02-27T23:08:42.782Z,7.9
2023-02-27T23:10:51.781Z,8.5
2023-02-27T23:12:57.890Z,6.7
2023-02-27T23:15:04.044Z,6.5
2023-02-27T23:19:16.228Z,6.6
2023-02-27T23:21:22.332Z,7.3
2023-02-27T23:25:37.475Z,8.3
2023-02-27T23:27:43.594Z,7.3
2023-02-27T23:29:49.711Z,7.9
2023-02-27T23:31:55.933Z,8.1
2023-02-27T23:34:01.966Z,8.6
2023-02-27T23:36:08.076Z,9.3
2023-02-27T23:38:14.212Z,9.1
2023-02-27T23:40:23.253Z,10.1
2023-02-27T23:44:35.496Z,10
2023-02-27T23:46:41.632Z,9.6
2023-02-27T23:48:47.789Z,8.3
2023-02-27T23:50:53.909Z,8.8
2023-02-27T23:53:00.144Z,11.5
2023-02-27T23:55:09.127Z,9.9
2023-02-27T23:57:15.276Z,11.1
2023-02-27T23:59:21.422Z,15.9
